Blackstone, Massachusetts
Current Conditions -  °F | °C
As of 12:35 AM on Thursday 27 Nov 2014 (Local Time) from KSFZ Reporting Station
Overcast Overcast  
Wind Chill: 21°   Ceiling: 800
Heat Index: 32°   Visibility: 8mi
Dew Point: 25°   Wind: 17mph
Humidity: 75%   Direction: 350°N
Pressure: 29.67"   Gusts: 28mph
Location:  42.02°N, 71.54°W
Report Text: KSFZ 270535Z 35015G24KT 8SM BKN008 OVC016 00/M04 A2967 RMK AO1 P0002
Loading
Personal Weather Stations






























Interactive Weather Map New forecast layout! Learn more

10-Day Weather Forecast

Advertisements
Track Severe Weather on mobile